Golden Ridge, Montana
Current Conditions -  °F | °C
As of 6:53 AM on Tuesday 27 Jan 2015 (Local Time) from KGTF Reporting Station
Clear Clear  
Wind Chill: 45°   Ceiling: Unl
Heat Index: 48°   Visibility: 10mi
Dew Point: 28°   Wind: 6mph
Humidity: 46%   Direction: 220°SW
Pressure: 29.9"   Gusts: NA
Location:  47.6169°N, 112.098°W
Report Text: KGTF 271353Z 22005KT 10SM CLR 09/M02 A2990 RMK AO2 SLP130 T00891022
Loading
Personal Weather Stations






























Interactive Weather Map New forecast layout! Learn more

10-Day Weather Forecast

Advertisements
Track Severe Weather on mobile